Time;durP1;ratioP1;P1;durP2;ratioP2;P2;SDS_P1;SDS_P2;PMS_P1;PMS_P2;Temp;Humidity;BMP_temperature;BMP_pressure;BME280_temperature;BME280_humidity;BME280_pressure;Samples;Min_cycle;Max_cycle;Signal;HPM_P1;HPM_P2
2023/10/15 00:01:37;;;;;;;2.13;0.45;;;6.60;90.00;;;;;;5007928;28;20032;-67
2023/10/15 00:04:03;;;;;;;2.15;0.50;;;6.60;90.50;;;;;;5012384;28;20038;-68
2023/10/15 00:06:30;;;;;;;6.32;0.95;;;6.50;90.40;;;;;;5012082;28;20493;-68
2023/10/15 00:08:55;;;;;;;2.53;0.50;;;6.50;90.60;;;;;;4983866;28;20042;-67
2023/10/15 00:11:21;;;;;;;1.25;0.50;;;6.50;90.50;;;;;;5011862;28;20437;-67
2023/10/15 00:13:47;;;;;;;2.70;0.50;;;6.50;90.30;;;;;;5006565;28;20498;-67
2023/10/15 00:16:22;;;;;;;2.35;0.75;;;6.60;89.90;;;;;;5010939;28;20037;-68
2023/10/15 00:18:48;;;;;;;2.67;0.57;;;6.50;90.50;;;;;;5003426;28;20034;-68
2023/10/15 00:21:14;;;;;;;2.97;0.77;;;6.50;90.80;;;;;;5007129;28;20419;-68
2023/10/15 00:23:42;;;;;;;2.42;0.50;;;6.50;91.10;;;;;;5003924;28;20027;-68
2023/10/15 00:26:10;;;;;;;1.45;0.38;;;6.50;91.30;;;;;;5009470;28;20553;-68
2023/10/15 00:28:36;;;;;;;3.95;0.77;;;6.40;91.90;;;;;;5008556;28;20053;-68
2023/10/15 00:31:08;;;;;;;3.63;0.50;;;6.40;92.00;;;;;;5008849;28;20447;-67
2023/10/15 00:33:33;;;;;;;2.08;0.47;;;6.30;92.10;;;;;;5004311;28;20490;-68
2023/10/15 00:35:59;;;;;;;6.65;1.00;;;6.20;92.30;;;;;;4998210;28;20030;-68
2023/10/15 00:38:25;;;;;;;1.30;0.40;;;6.10;92.20;;;;;;5008944;28;20105;-69
2023/10/15 00:41:07;;;;;;;2.58;0.55;;;6.10;92.90;;;;;;5012728;28;20033;-68
2023/10/15 00:43:32;;;;;;;4.22;0.70;;;5.90;92.90;;;;;;5009715;28;20069;-69
2023/10/15 00:46:00;;;;;;;2.28;0.60;;;5.90;93.50;;;;;;5000293;28;20031;-68
2023/10/15 00:48:33;;;;;;;1.55;0.43;;;5.80;93.20;;;;;;5003509;28;20060;-68
2023/10/15 00:51:08;;;;;;;2.20;0.50;;;5.80;93.60;;;;;;5005229;28;20035;-68
2023/10/15 00:53:34;;;;;;;4.43;0.60;;;5.80;93.70;;;;;;5001140;28;20044;-68
2023/10/15 00:56:04;;;;;;;4.07;0.85;;;5.70;93.90;;;;;;5012288;28;20087;-67
2023/10/15 01:03:48;;;;;;;4.28;0.88;;;5.60;94.40;;;;;;4997784;28;20190;-68
2023/10/15 01:06:30;;;;;;;2.05;0.52;;;5.60;94.60;;;;;;5000865;28;20141;-68
2023/10/15 01:09:28;;;;;;;6.40;0.90;;;5.70;94.60;;;;;;4980928;28;20213;-68
2023/10/15 01:11:57;;;;;;;3.53;0.80;;;5.80;94.50;;;;;;5002327;28;20413;-67
2023/10/15 01:14:35;;;;;;;1.73;0.63;;;5.80;94.50;;;;;;5001354;28;21667;-68
2023/10/15 01:17:02;;;;;;;4.20;0.70;;;5.80;94.60;;;;;;5003359;28;20482;-68
2023/10/15 01:19:32;;;;;;;7.03;1.02;;;5.80;94.60;;;;;;4993824;28;20050;-67
2023/10/15 01:22:10;;;;;;;3.83;0.90;;;5.80;94.60;;;;;;5005490;28;20030;-68
2023/10/15 01:24:37;;;;;;;1.95;0.80;;;5.80;94.60;;;;;;5000548;28;20510;-69
2023/10/15 01:27:09;;;;;;;5.75;0.90;;;5.80;94.70;;;;;;4995700;28;20137;-68
2023/10/15 01:29:40;;;;;;;2.90;0.60;;;5.80;94.80;;;;;;5002087;28;22568;-67
2023/10/15 01:32:18;;;;;;;;;;;5.80;94.70;;;;;;5003614;28;20049;-67
2023/10/15 01:34:45;;;;;;;2.47;0.93;;;6.00;94.50;;;;;;5004871;28;19913;-67
2023/10/15 01:39:47;;;;;;;8.48;1.45;;;6.00;94.70;;;;;;4996507;28;20087;-67
2023/10/15 01:42:40;;;;;;;3.22;1.17;;;6.00;94.60;;;;;;5001307;28;20048;-69
2023/10/15 01:48:05;;;;;;;6.90;0.85;;;6.00;94.40;;;;;;5004846;28;20030;-68
2023/10/15 01:50:32;;;;;;;8.15;1.10;;;6.00;94.10;;;;;;5008520;28;20046;-67
2023/10/15 01:53:04;;;;;;;4.50;1.13;;;6.00;94.20;;;;;;5005727;28;20132;-67
2023/10/15 01:55:30;;;;;;;4.40;1.30;;;6.10;94.10;;;;;;5003578;28;20026;-69
2023/10/15 01:58:00;;;;;;;8.90;1.33;;;6.00;94.10;;;;;;4998883;28;20029;-67
2023/10/15 02:03:06;;;;;;;6.55;0.90;;;5.90;94.40;;;;;;5001251;28;20131;-67
2023/10/15 02:05:42;;;;;;;4.75;0.80;;;5.90;94.20;;;;;;5001747;28;20058;-68
2023/10/15 02:08:23;;;;;;;5.13;1.63;;;6.00;94.00;;;;;;4981364;28;20038;-67
2023/10/15 02:10:48;;;;;;;;;;;5.80;94.00;;;;;;5000653;28;20021;-67
2023/10/15 02:13:17;;;;;;;5.55;1.25;;;5.80;94.20;;;;;;5000918;28;19917;-68
2023/10/15 02:15:49;;;;;;;5.88;0.80;;;5.80;94.00;;;;;;5002699;28;20033;-69
2023/10/15 02:18:17;;;;;;;6.35;1.30;;;5.80;93.90;;;;;;5005082;28;20406;-68
2023/10/15 02:20:44;;;;;;;5.50;1.50;;;5.70;94.00;;;;;;4997789;28;20026;-67
2023/10/15 02:23:20;;;;;;;4.47;1.23;;;5.80;93.90;;;;;;5000299;28;20104;-70
2023/10/15 02:25:58;;;;;;;5.18;1.33;;;5.80;93.70;;;;;;5005204;28;20046;-69
2023/10/15 02:28:31;;;;;;;6.07;1.15;;;5.80;93.60;;;;;;5005025;28;20038;-69
2023/10/15 02:33:30;;;;;;;7.63;1.30;;;5.90;93.20;;;;;;5002876;28;20060;-68
2023/10/15 02:35:59;;;;;;;1.00;0.63;;;6.00;93.50;;;;;;5005838;28;20538;-68
2023/10/15 02:38:26;;;;;;;5.05;1.40;;;6.00;93.10;;;;;;5004519;28;20022;-68
2023/10/15 02:41:03;;;;;;;3.78;1.10;;;5.90;93.10;;;;;;5001090;28;20089;-67
2023/10/15 02:43:29;;;;;;;7.18;1.20;;;5.90;92.90;;;;;;5018628;28;20041;-69
2023/10/15 02:46:01;;;;;;;8.80;1.23;;;5.80;93.20;;;;;;5003942;28;20069;-68
2023/10/15 02:48:31;;;;;;;3.00;0.63;;;5.80;93.30;;;;;;5000671;28;20030;-67
2023/10/15 02:51:00;;;;;;;8.63;1.13;;;5.80;93.40;;;;;;4998998;28;20044;-67
2023/10/15 02:53:28;;;;;;;2.90;0.93;;;5.70;93.60;;;;;;5004215;28;20116;-67
2023/10/15 02:55:58;;;;;;;6.22;1.27;;;5.60;93.50;;;;;;5005604;28;20022;-67
2023/10/15 02:58:28;;;;;;;3.17;0.65;;;5.60;93.70;;;;;;5006357;28;20167;-68
2023/10/15 03:01:00;;;;;;;6.63;1.10;;;5.60;93.60;;;;;;5001645;28;20376;-67
2023/10/15 03:03:34;;;;;;;6.13;1.13;;;5.60;93.50;;;;;;4996713;28;20046;-67
2023/10/15 03:06:01;;;;;;;3.00;0.63;;;5.60;93.90;;;;;;5008992;28;20030;-67
2023/10/15 03:08:32;;;;;;;3.65;0.90;;;5.60;93.60;;;;;;4973440;28;20440;-68
2023/10/15 03:11:11;;;;;;;7.57;0.98;;;5.70;93.70;;;;;;5007860;28;20028;-67
2023/10/15 03:13:50;;;;;;;1.52;0.88;;;5.80;93.30;;;;;;4996312;28;20046;-68
2023/10/15 03:16:21;;;;;;;2.42;0.63;;;5.80;92.80;;;;;;5005439;28;20062;-68
2023/10/15 03:18:48;;;;;;;3.65;0.70;;;5.90;93.20;;;;;;5001373;28;20084;-68
2023/10/15 03:21:25;;;;;;;3.85;0.77;;;6.00;92.60;;;;;;5001165;28;20054;-67
2023/10/15 03:23:51;;;;;;;4.13;0.65;;;6.10;92.10;;;;;;5004431;28;20040;-71
2023/10/15 03:26:17;;;;;;;4.32;0.63;;;6.10;92.30;;;;;;5011338;28;20382;-68
2023/10/15 03:28:45;;;;;;;3.88;0.70;;;6.10;92.60;;;;;;5009590;28;20029;-67
2023/10/15 03:31:14;;;;;;;3.55;0.82;;;6.10;92.80;;;;;;5005537;28;20531;-68
2023/10/15 03:33:41;;;;;;;7.32;1.25;;;6.10;93.00;;;;;;5002897;28;20040;-68
2023/10/15 03:36:12;;;;;;;4.68;0.80;;;6.00;93.10;;;;;;5005298;28;20038;-67
2023/10/15 03:38:38;;;;;;;3.10;1.00;;;6.00;93.20;;;;;;5001461;28;20065;-70
2023/10/15 03:41:11;;;;;;;5.35;0.90;;;6.10;93.40;;;;;;5001159;28;20037;-68
2023/10/15 03:43:36;;;;;;;6.35;1.10;;;6.10;93.00;;;;;;5005316;28;20125;-68
2023/10/15 03:46:17;;;;;;;3.65;0.90;;;6.10;93.20;;;;;;5007091;28;20030;-67
2023/10/15 03:48:47;;;;;;;3.72;0.55;;;6.10;93.20;;;;;;5003951;28;20465;-68
2023/10/15 03:51:16;;;;;;;3.40;0.95;;;6.10;93.40;;;;;;5008724;28;20041;-67
2023/10/15 03:53:43;;;;;;;3.75;0.80;;;6.10;93.30;;;;;;5009759;28;20475;-67
2023/10/15 03:56:09;;;;;;;4.13;0.80;;;6.10;93.50;;;;;;5010570;28;20030;-68
2023/10/15 03:58:34;;;;;;;6.40;0.88;;;6.10;93.60;;;;;;5010568;28;20091;-68
2023/10/15 04:01:11;;;;;;;0.80;0.40;;;6.10;94.30;;;;;;5009716;28;20037;-68
2023/10/15 04:03:41;;;;;;;4.60;0.98;;;6.00;94.80;;;;;;5006920;28;20040;-67
2023/10/15 04:06:07;;;;;;;6.30;0.80;;;5.90;95.20;;;;;;5006030;28;20084;-67
2023/10/15 04:08:32;;;;;;;4.28;0.68;;;5.90;95.60;;;;;;4980416;28;20062;-69
2023/10/15 04:10:59;;;;;;;1.52;0.70;;;5.80;95.90;;;;;;5012121;28;20478;-68
2023/10/15 04:13:28;;;;;;;4.05;0.90;;;5.80;96.20;;;;;;5011962;28;20030;-68
2023/10/15 04:15:55;;;;;;;3.08;0.90;;;5.80;96.30;;;;;;5008981;28;20065;-68
2023/10/15 04:18:24;;;;;;;5.47;0.77;;;5.80;96.60;;;;;;5007101;28;20030;-68
2023/10/15 04:20:55;;;;;;;4.35;0.90;;;5.80;96.80;;;;;;5007084;28;20026;-69
2023/10/15 04:23:34;;;;;;;2.78;0.70;;;5.70;96.90;;;;;;5004477;28;20466;-68
2023/10/15 04:26:07;;;;;;;5.28;1.30;;;5.70;97.00;;;;;;5007984;28;20394;-68
2023/10/15 04:28:34;;;;;;;6.63;1.10;;;5.70;97.20;;;;;;5003774;28;20077;-67
2023/10/15 04:31:00;;;;;;;5.00;0.82;;;5.70;97.10;;;;;;5005641;28;20491;-66
2023/10/15 04:33:28;;;;;;;4.57;0.82;;;5.60;97.20;;;;;;5011266;28;20038;-66
2023/10/15 04:35:56;;;;;;;5.65;0.80;;;5.60;97.40;;;;;;5007350;28;20458;-65
2023/10/15 04:38:22;;;;;;;2.28;1.00;;;5.60;97.40;;;;;;5005992;28;20034;-66
2023/10/15 04:43:25;;;;;;;2.92;0.60;;;5.60;97.60;;;;;;5011756;28;20111;-66
2023/10/15 04:45:51;;;;;;;3.03;0.52;;;5.60;97.70;;;;;;5002251;28;20034;-66
2023/10/15 04:48:26;;;;;;;2.85;0.80;;;5.60;97.80;;;;;;5008463;28;20030;-66
2023/10/15 04:50:51;;;;;;;4.80;1.00;;;5.60;97.80;;;;;;5010210;28;20026;-67
2023/10/15 04:55:48;;;;;;;2.83;1.10;;;5.50;97.80;;;;;;5006943;28;20037;-65
2023/10/15 04:58:14;;;;;;;3.55;1.10;;;5.50;98.00;;;;;;5008433;28;20306;-66
2023/10/15 05:00:40;;;;;;;5.60;1.08;;;5.50;98.00;;;;;;5004537;28;20033;-67
2023/10/15 05:03:06;;;;;;;2.63;1.20;;;5.50;98.10;;;;;;5010698;28;20042;-66
2023/10/15 05:05:31;;;;;;;4.95;1.13;;;5.50;98.20;;;;;;5005063;28;20083;-66
2023/10/15 05:08:00;;;;;;;6.07;1.40;;;5.50;98.20;;;;;;4976828;28;20065;-65
2023/10/15 05:10:34;;;;;;;3.80;0.88;;;5.50;98.20;;;;;;5005661;28;20034;-65
2023/10/15 05:12:59;;;;;;;2.90;1.00;;;5.40;98.30;;;;;;5005039;28;20030;-69
2023/10/15 05:15:26;;;;;;;3.78;0.73;;;5.50;98.30;;;;;;5004988;28;20056;-65
2023/10/15 05:17:51;;;;;;;2.88;1.15;;;5.50;98.30;;;;;;5009442;28;20030;-66
2023/10/15 05:20:20;;;;;;;3.08;0.77;;;5.50;98.30;;;;;;5000536;28;20382;-66
2023/10/15 05:22:49;;;;;;;4.53;0.98;;;5.60;98.20;;;;;;5004019;28;20029;-66
2023/10/15 05:25:17;;;;;;;6.15;1.13;;;5.60;98.20;;;;;;5005694;28;20038;-69
2023/10/15 05:27:52;;;;;;;3.10;0.85;;;5.70;98.10;;;;;;5008759;28;20125;-66
2023/10/15 05:30:18;;;;;;;4.43;1.13;;;5.70;98.00;;;;;;5006113;28;20069;-67
2023/10/15 05:32:44;;;;;;;10.23;1.20;;;5.70;98.00;;;;;;5003093;28;20073;-66
2023/10/15 05:35:10;;;;;;;8.05;1.27;;;5.70;97.70;;;;;;5009497;28;20033;-67
2023/10/15 05:37:42;;;;;;;3.17;0.90;;;5.70;97.70;;;;;;4996881;28;20026;-67
2023/10/15 05:40:08;;;;;;;4.68;1.33;;;5.60;97.80;;;;;;5001895;28;20034;-66
2023/10/15 05:42:35;;;;;;;5.97;0.93;;;5.70;98.00;;;;;;5001246;28;20068;-66
2023/10/15 05:45:01;;;;;;;7.13;1.00;;;5.70;98.10;;;;;;4997937;28;20475;-66
2023/10/15 05:47:28;;;;;;;5.05;1.13;;;5.60;98.10;;;;;;5018549;28;20024;-66
2023/10/15 05:49:54;;;;;;;8.63;1.25;;;5.60;98.20;;;;;;5010500;28;20235;-65
2023/10/15 05:52:20;;;;;;;3.40;0.85;;;5.60;98.30;;;;;;5001508;28;20091;-67
2023/10/15 05:54:47;;;;;;;5.70;1.10;;;5.60;98.20;;;;;;5010098;28;20447;-66
2023/10/15 05:57:13;;;;;;;4.15;0.80;;;5.50;98.30;;;;;;5008882;28;20052;-70
2023/10/15 05:59:38;;;;;;;3.25;0.60;;;5.50;98.40;;;;;;5006701;28;20463;-66
2023/10/15 06:02:04;;;;;;;2.80;0.75;;;5.50;98.20;;;;;;5005105;28;20120;-65
2023/10/15 06:04:33;;;;;;;1.58;0.50;;;5.40;98.10;;;;;;5005260;28;20161;-66
2023/10/15 06:06:58;;;;;;;2.50;0.60;;;5.40;97.60;;;;;;5008630;28;20025;-67
2023/10/15 06:09:24;;;;;;;2.58;0.40;;;5.30;97.40;;;;;;4982951;28;22019;-66
2023/10/15 06:11:50;;;;;;;2.92;0.75;;;5.40;97.50;;;;;;5008181;28;20030;-66
2023/10/15 06:14:15;;;;;;;1.83;0.70;;;5.30;97.40;;;;;;5007334;28;20383;-66
2023/10/15 06:16:41;;;;;;;2.08;0.68;;;5.30;97.50;;;;;;5000626;28;20036;-66
2023/10/15 06:19:09;;;;;;;2.63;0.85;;;5.40;97.80;;;;;;5007116;28;20374;-66
2023/10/15 06:21:34;;;;;;;3.13;0.90;;;5.40;97.70;;;;;;5001940;28;20390;-66
2023/10/15 06:24:00;;;;;;;3.25;1.10;;;5.40;97.80;;;;;;5001032;28;20028;-66
2023/10/15 06:26:25;;;;;;;2.53;0.65;;;5.40;97.90;;;;;;5000851;28;20121;-66
2023/10/15 06:28:51;;;;;;;2.95;0.77;;;5.50;98.00;;;;;;4993006;28;20038;-67
2023/10/15 06:31:16;;;;;;;2.17;0.90;;;5.50;98.00;;;;;;4997505;28;20048;-69
2023/10/15 06:33:42;;;;;;;3.33;0.77;;;5.60;98.10;;;;;;5004343;28;20076;-66
2023/10/15 06:36:07;;;;;;;5.22;0.80;;;5.60;98.20;;;;;;5004327;28;20042;-66
2023/10/15 06:38:33;;;;;;;3.92;0.60;;;5.60;98.00;;;;;;5006307;28;20034;-67
2023/10/15 06:41:00;;;;;;;1.48;0.55;;;5.60;97.90;;;;;;5004891;28;20038;-67
2023/10/15 06:43:26;;;;;;;2.35;0.45;;;5.60;98.00;;;;;;5003554;28;20037;-66
2023/10/15 06:45:52;;;;;;;3.28;0.65;;;5.60;98.00;;;;;;5004076;28;20034;-66
2023/10/15 06:48:18;;;;;;;3.13;0.63;;;5.50;98.00;;;;;;5002572;28;20038;-65
2023/10/15 06:50:44;;;;;;;0.95;0.38;;;5.50;97.90;;;;;;5001622;28;20541;-65
2023/10/15 06:53:09;;;;;;;2.28;0.50;;;5.50;97.90;;;;;;5006432;28;20033;-65
2023/10/15 06:55:35;;;;;;;2.58;0.70;;;5.50;98.00;;;;;;5010876;28;20033;-65
2023/10/15 06:58:01;;;;;;;6.43;0.90;;;5.60;98.00;;;;;;5007650;28;20026;-65
2023/10/15 07:00:27;;;;;;;2.35;0.60;;;5.60;98.10;;;;;;5006761;28;20044;-67
2023/10/15 07:02:54;;;;;;;1.90;0.40;;;5.60;98.00;;;;;;4998871;28;20135;-66
2023/10/15 07:05:21;;;;;;;3.15;0.80;;;5.70;97.90;;;;;;5007004;28;20037;-66
2023/10/15 07:07:47;;;;;;;1.27;0.60;;;5.80;97.90;;;;;;4980791;28;20453;-65
2023/10/15 07:10:17;;;;;;;4.32;0.70;;;5.80;97.70;;;;;;5008297;28;20065;-65
2023/10/15 07:12:47;;;;;;;4.78;0.63;;;5.90;97.70;;;;;;5007449;28;20064;-66
2023/10/15 07:15:15;;;;;;;1.30;0.40;;;5.80;97.50;;;;;;5009052;28;20080;-66
2023/10/15 07:17:44;;;;;;;1.42;0.60;;;5.70;97.10;;;;;;5007024;28;20037;-66
2023/10/15 07:20:14;;;;;;;3.25;0.43;;;5.80;97.30;;;;;;5012773;28;20030;-67
2023/10/15 07:22:44;;;;;;;2.00;0.40;;;5.80;97.20;;;;;;5007716;28;20081;-65
2023/10/15 07:25:10;;;;;;;1.13;0.60;;;5.70;96.90;;;;;;5010504;28;20038;-65
2023/10/15 07:27:37;;;;;;;0.85;0.40;;;5.70;97.00;;;;;;5009129;28;20031;-66
2023/10/15 07:30:03;;;;;;;1.75;0.57;;;5.70;97.20;;;;;;5010523;28;20084;-68
2023/10/15 07:32:29;;;;;;;2.28;0.55;;;5.70;97.20;;;;;;5007235;28;20038;-66
2023/10/15 07:34:54;;;;;;;0.73;0.30;;;5.70;97.30;;;;;;5007563;28;20030;-66
2023/10/15 07:37:20;;;;;;;4.25;0.60;;;5.80;97.50;;;;;;5003169;28;20040;-65
2023/10/15 07:39:45;;;;;;;3.28;0.40;;;6.00;97.50;;;;;;5005002;28;20525;-65
2023/10/15 07:42:11;;;;;;;1.30;0.38;;;6.10;97.30;;;;;;4999247;28;20108;-67
2023/10/15 07:44:36;;;;;;;2.85;0.40;;;6.20;97.20;;;;;;4996379;28;20062;-65
2023/10/15 07:47:04;;;;;;;2.67;0.65;;;6.30;97.20;;;;;;5006741;28;20042;-66
2023/10/15 07:49:31;;;;;;;4.47;0.65;;;6.20;97.20;;;;;;5000919;28;20074;-66
2023/10/15 07:51:57;;;;;;;3.50;0.60;;;6.20;97.20;;;;;;5003763;28;20493;-66
2023/10/15 07:54:22;;;;;;;0.68;0.52;;;6.20;97.40;;;;;;5010862;28;20018;-66
2023/10/15 07:56:48;;;;;;;2.88;0.60;;;6.10;97.50;;;;;;5011089;28;20029;-66
2023/10/15 07:59:14;;;;;;;0.70;0.40;;;6.10;97.70;;;;;;5009526;28;20121;-67
2023/10/15 08:01:40;;;;;;;2.75;0.50;;;6.10;97.80;;;;;;5016602;28;20031;-66
2023/10/15 08:04:06;;;;;;;2.67;0.63;;;6.10;98.00;;;;;;5008892;28;20022;-66
2023/10/15 08:06:33;;;;;;;3.15;0.50;;;6.10;98.00;;;;;;5011824;28;20029;-67
2023/10/15 08:08:59;;;;;;;2.00;0.55;;;6.10;98.10;;;;;;4984841;28;20091;-66
2023/10/15 08:11:24;;;;;;;2.65;0.63;;;6.00;98.10;;;;;;5009927;28;20073;-66
2023/10/15 08:13:50;;;;;;;2.15;0.52;;;5.90;98.40;;;;;;5001441;28;20088;-66
2023/10/15 08:16:18;;;;;;;1.02;0.50;;;5.90;98.40;;;;;;5006889;28;20446;-66
2023/10/15 08:18:44;;;;;;;2.53;0.55;;;5.80;98.40;;;;;;5009432;28;20057;-66
2023/10/15 08:21:11;;;;;;;2.15;0.47;;;5.80;98.50;;;;;;5004928;28;20033;-67
2023/10/15 08:23:38;;;;;;;1.92;0.60;;;5.90;98.40;;;;;;5004315;28;20060;-66
2023/10/15 08:26:05;;;;;;;2.30;0.50;;;5.90;98.40;;;;;;5001293;28;20057;-66
2023/10/15 08:28:31;;;;;;;2.80;0.70;;;5.90;98.40;;;;;;5007897;28;20037;-69
2023/10/15 08:30:57;;;;;;;1.77;0.47;;;6.00;98.30;;;;;;5003703;28;20033;-66
2023/10/15 08:33:23;;;;;;;4.20;0.57;;;5.90;98.20;;;;;;5005984;28;20030;-66
2023/10/15 08:35:49;;;;;;;2.85;0.50;;;6.00;98.20;;;;;;5003688;28;20140;-67
2023/10/15 08:38:15;;;;;;;2.78;0.60;;;6.10;98.00;;;;;;5004515;28;20065;-68
2023/10/15 08:40:45;;;;;;;0.80;0.60;;;6.10;97.80;;;;;;5005472;28;20108;-66
2023/10/15 08:43:14;;;;;;;2.58;0.60;;;6.30;97.70;;;;;;5011122;28;20421;-66
2023/10/15 08:45:43;;;;;;;1.83;0.30;;;6.40;97.40;;;;;;5000393;28;20057;-66
2023/10/15 08:48:11;;;;;;;0.90;0.40;;;6.50;97.40;;;;;;5003789;28;20029;-67
2023/10/15 08:50:37;;;;;;;2.95;0.57;;;6.60;97.30;;;;;;5005092;28;20509;-66
2023/10/15 08:53:09;;;;;;;2.60;0.22;;;6.60;97.20;;;;;;4999375;28;20030;-66
2023/10/15 08:55:36;;;;;;;3.47;0.43;;;6.50;96.80;;;;;;5007422;28;20045;-66
2023/10/15 08:58:02;;;;;;;3.70;0.50;;;6.50;96.60;;;;;;5003633;28;20046;-68
2023/10/15 09:00:31;;;;;;;1.55;0.50;;;6.60;96.90;;;;;;4999312;28;20396;-66
2023/10/15 09:02:57;;;;;;;1.23;0.40;;;6.80;96.50;;;;;;5009213;28;20068;-66
2023/10/15 09:05:23;;;;;;;1.98;0.65;;;7.00;96.80;;;;;;5006998;28;20066;-65
2023/10/15 09:07:54;;;;;;;3.47;0.55;;;7.00;96.30;;;;;;4985254;28;20399;-68
2023/10/15 09:10:20;;;;;;;2.72;0.50;;;6.90;96.40;;;;;;5001551;28;20071;-66
2023/10/15 09:12:45;;;;;;;0.88;0.40;;;6.80;95.90;;;;;;5010481;28;20046;-66
2023/10/15 09:15:17;;;;;;;4.03;0.43;;;6.60;96.20;;;;;;5004305;28;20030;-66
2023/10/15 09:17:55;;;;;;;2.70;0.60;;;6.60;96.50;;;;;;5005299;28;20462;-66
2023/10/15 09:20:28;;;;;;;0.40;0.20;;;6.60;96.60;;;;;;4997554;28;20030;-67
2023/10/15 09:22:57;;;;;;;1.00;0.52;;;6.50;96.30;;;;;;4993364;28;20061;-67
2023/10/15 09:25:24;;;;;;;1.50;0.45;;;6.40;96.40;;;;;;5007173;28;20057;-67
2023/10/15 09:27:52;;;;;;;1.35;0.43;;;6.30;96.70;;;;;;5008078;28;20056;-66
2023/10/15 09:30:23;;;;;;;3.30;0.45;;;6.30;97.10;;;;;;5006249;28;20034;-67
2023/10/15 09:32:49;;;;;;;1.63;0.45;;;6.30;97.10;;;;;;5007444;28;20554;-67
2023/10/15 09:35:15;;;;;;;1.67;0.40;;;6.40;97.20;;;;;;5004143;28;20030;-65
2023/10/15 09:37:41;;;;;;;1.35;0.40;;;6.40;97.20;;;;;;5001176;28;20114;-67
2023/10/15 09:40:10;;;;;;;0.57;0.40;;;6.40;97.30;;;;;;5005849;28;20485;-67
2023/10/15 09:42:38;;;;;;;0.85;0.47;;;6.40;97.30;;;;;;5002435;28;20560;-66
2023/10/15 09:45:06;;;;;;;1.75;0.80;;;6.30;97.40;;;;;;5000982;28;20038;-66
2023/10/15 09:47:33;;;;;;;2.20;0.73;;;6.20;97.40;;;;;;5001848;28;20108;-67
2023/10/15 09:49:59;;;;;;;2.67;0.98;;;6.10;97.50;;;;;;5004765;28;20025;-68
2023/10/15 09:52:28;;;;;;;3.70;0.70;;;6.20;97.50;;;;;;5003418;28;20053;-67
2023/10/15 09:54:56;;;;;;;2.55;0.60;;;6.10;96.60;;;;;;4996527;28;20138;-66
2023/10/15 09:57:23;;;;;;;2.50;0.50;;;6.10;95.90;;;;;;4997317;28;20026;-69
2023/10/15 09:59:53;;;;;;;3.03;0.65;;;6.30;96.30;;;;;;5012901;28;20034;-67
2023/10/15 10:02:32;;;;;;;2.47;0.40;;;6.30;96.60;;;;;;4996330;28;20076;-69
2023/10/15 10:05:41;;;;;;;1.95;0.50;;;6.30;96.50;;;;;;5008468;28;20315;-65
2023/10/15 10:08:31;;;;;;;3.40;0.63;;;6.40;96.60;;;;;;4974017;28;20065;-67
2023/10/15 10:11:24;;;;;;;2.35;0.57;;;6.50;96.80;;;;;;5008525;28;20136;-65
2023/10/15 10:14:15;;;;;;;5.05;0.52;;;6.40;96.60;;;;;;4995658;28;20040;-66
2023/10/15 10:16:42;;;;;;;2.70;0.50;;;6.70;96.70;;;;;;4996367;28;20121;-67
2023/10/15 10:19:08;;;;;;;1.13;0.52;;;7.00;96.80;;;;;;5000137;28;20026;-65
2023/10/15 10:21:34;;;;;;;4.25;1.08;;;7.10;96.80;;;;;;4998666;28;20046;-68
2023/10/15 10:24:02;;;;;;;3.50;0.40;;;7.10;96.60;;;;;;5000901;28;20030;-66
2023/10/15 10:26:32;;;;;;;2.10;0.60;;;7.20;96.70;;;;;;5001893;28;20479;-66
2023/10/15 10:28:59;;;;;;;1.85;0.60;;;7.40;97.00;;;;;;4995331;28;20027;-67
2023/10/15 10:31:26;;;;;;;3.40;0.80;;;7.30;96.70;;;;;;4999057;28;20081;-67
2023/10/15 10:33:54;;;;;;;5.63;1.02;;;7.20;95.90;;;;;;5001452;28;20077;-66
2023/10/15 10:36:28;;;;;;;8.02;1.00;;;7.20;95.70;;;;;;4999372;28;20049;-67
2023/10/15 10:39:10;;;;;;;6.40;0.90;;;7.00;95.80;;;;;;5002204;28;20421;-68
2023/10/15 10:41:54;;;;;;;2.72;0.50;;;7.00;95.90;;;;;;5006187;28;20077;-70
2023/10/15 10:44:22;;;;;;;2.05;0.60;;;7.30;96.20;;;;;;4992797;28;20128;-66
2023/10/15 10:46:48;;;;;;;3.92;1.05;;;7.70;96.10;;;;;;5008688;28;20160;-69
2023/10/15 10:49:14;;;;;;;3.20;0.55;;;7.80;95.50;;;;;;5006461;28;20098;-69
2023/10/15 10:51:41;;;;;;;4.20;0.90;;;8.00;94.80;;;;;;5007100;28;20030;-67
2023/10/15 10:54:07;;;;;;;4.30;0.70;;;8.20;93.80;;;;;;5005848;28;20038;-67
2023/10/15 10:56:38;;;;;;;2.50;0.60;;;8.40;93.40;;;;;;5005539;28;20026;-67
2023/10/15 10:59:06;;;;;;;2.85;0.70;;;8.40;93.10;;;;;;4999117;28;20530;-67
2023/10/15 11:01:34;;;;;;;2.80;0.85;;;8.50;92.00;;;;;;4995353;28;20164;-68
2023/10/15 11:03:59;;;;;;;2.58;0.60;;;8.40;91.80;;;;;;5000889;28;20046;-69
2023/10/15 11:06:26;;;;;;;3.15;0.77;;;8.50;92.70;;;;;;5001844;28;20107;-68
2023/10/15 11:08:52;;;;;;;1.60;0.85;;;8.30;92.30;;;;;;4980041;28;20062;-68
2023/10/15 11:11:19;;;;;;;1.63;0.65;;;8.30;92.30;;;;;;5002934;28;20034;-69
2023/10/15 11:13:47;;;;;;;1.95;0.43;;;8.60;92.10;;;;;;4998516;28;20026;-66
2023/10/15 11:16:13;;;;;;;2.55;0.60;;;9.10;92.50;;;;;;4996748;28;20050;-66
2023/10/15 11:18:39;;;;;;;1.83;0.57;;;9.40;91.90;;;;;;4999500;28;20383;-69
2023/10/15 11:21:07;;;;;;;3.35;0.65;;;9.10;91.40;;;;;;4998077;28;20034;-66
2023/10/15 11:23:33;;;;;;;0.55;0.50;;;9.00;91.50;;;;;;5004854;28;20033;-65
2023/10/15 11:25:59;;;;;;;2.22;0.52;;;8.80;92.10;;;;;;5008042;28;20414;-67
2023/10/15 11:28:24;;;;;;;3.10;0.70;;;8.60;92.00;;;;;;5004845;28;20113;-68
2023/10/15 11:30:51;;;;;;;1.45;0.65;;;8.50;92.80;;;;;;5002521;28;20375;-66
2023/10/15 11:33:19;;;;;;;3.13;0.88;;;8.60;93.30;;;;;;5002084;28;20074;-64
2023/10/15 11:35:54;;;;;;;2.08;0.40;;;8.80;92.70;;;;;;5000879;28;20050;-65
2023/10/15 11:38:20;;;;;;;2.70;0.50;;;8.80;90.80;;;;;;5006358;28;20038;-68
2023/10/15 11:40:46;;;;;;;2.15;0.77;;;9.00;89.00;;;;;;5019890;28;20125;-66
2023/10/15 11:43:17;;;;;;;1.10;0.40;;;9.00;87.80;;;;;;4997998;28;20042;-66
2023/10/15 11:45:43;;;;;;;5.03;0.60;;;9.20;87.60;;;;;;5000013;28;20113;-65
2023/10/15 11:48:11;;;;;;;2.08;0.50;;;9.60;87.20;;;;;;5002634;28;20069;-68
2023/10/15 11:50:40;;;;;;;2.03;0.68;;;9.70;85.40;;;;;;5006308;28;20121;-68
2023/10/15 11:53:26;;;;;;;1.73;0.60;;;9.90;84.50;;;;;;5009223;28;20038;-66
2023/10/15 11:55:54;;;;;;;1.50;0.40;;;9.90;84.50;;;;;;4996327;28;20070;-66
2023/10/15 11:58:23;;;;;;;0.63;0.20;;;9.50;85.40;;;;;;5001654;28;20030;-66
2023/10/15 12:00:51;;;;;;;2.28;0.30;;;9.60;84.70;;;;;;5002154;28;20022;-66
2023/10/15 12:03:18;;;;;;;3.22;0.50;;;9.10;86.70;;;;;;4998532;28;20466;-66
2023/10/15 12:05:44;;;;;;;0.80;0.25;;;9.30;85.70;;;;;;4996060;28;20037;-67
2023/10/15 12:08:13;;;;;;;2.92;0.30;;;9.40;85.50;;;;;;4983290;28;20058;-68
2023/10/15 12:10:42;;;;;;;1.58;0.40;;;9.70;86.50;;;;;;5005083;28;21337;-66
2023/10/15 12:13:09;;;;;;;1.50;0.30;;;9.80;86.50;;;;;;5000263;28;20512;-66
2023/10/15 12:15:34;;;;;;;0.93;0.28;;;9.60;86.30;;;;;;5003097;28;20046;-69
2023/10/15 12:18:00;;;;;;;3.10;0.47;;;9.10;85.50;;;;;;5012554;28;20100;-67
2023/10/15 12:20:27;;;;;;;1.42;0.45;;;9.10;86.60;;;;;;5007450;28;20121;-68
2023/10/15 12:22:52;;;;;;;1.52;0.50;;;9.00;86.90;;;;;;5005081;28;20117;-69
2023/10/15 12:25:18;;;;;;;1.65;0.13;;;9.40;85.80;;;;;;5010265;28;20131;-67
2023/10/15 12:27:43;;;;;;;0.20;0.20;;;9.60;84.90;;;;;;5003531;28;20084;-68
2023/10/15 12:30:27;;;;;;;0.85;0.25;;;9.60;84.00;;;;;;5007772;28;20491;-69
2023/10/15 12:32:53;;;;;;;2.65;0.40;;;10.10;83.60;;;;;;4999904;28;20040;-67
2023/10/15 12:35:20;;;;;;;0.85;0.40;;;9.80;82.60;;;;;;5009596;28;20114;-68
2023/10/15 12:37:46;;;;;;;2.08;0.55;;;10.20;83.10;;;;;;5007311;28;20108;-68
2023/10/15 12:40:12;;;;;;;1.30;0.40;;;10.10;82.30;;;;;;5002872;28;20037;-68
2023/10/15 12:42:39;;;;;;;1.27;0.28;;;10.50;82.60;;;;;;5003911;28;20036;-68
2023/10/15 12:45:09;;;;;;;1.15;0.20;;;10.40;81.40;;;;;;4996862;28;20034;-68
2023/10/15 12:47:36;;;;;;;1.58;0.40;;;10.50;81.10;;;;;;5010807;28;20355;-68
2023/10/15 12:50:03;;;;;;;0.98;0.30;;;10.80;82.10;;;;;;5004245;28;20032;-68
2023/10/15 12:52:29;;;;;;;3.50;0.43;;;11.00;81.70;;;;;;5004647;28;20045;-68
2023/10/15 12:54:54;;;;;;;2.42;0.40;;;11.10;80.40;;;;;;5006306;28;20438;-68
2023/10/15 12:57:22;;;;;;;0.65;0.20;;;11.20;80.10;;;;;;4996712;28;20034;-68
2023/10/15 12:59:47;;;;;;;2.15;0.45;;;11.50;79.00;;;;;;5004042;28;20037;-68
2023/10/15 13:02:13;;;;;;;2.28;0.40;;;11.30;77.80;;;;;;5004019;28;20049;-68
2023/10/15 13:04:39;;;;;;;1.23;0.45;;;11.00;79.00;;;;;;5005733;28;20029;-70
2023/10/15 13:07:05;;;;;;;2.22;0.50;;;11.40;79.20;;;;;;5000738;28;20026;-68
2023/10/15 13:09:32;;;;;;;2.67;0.35;;;11.50;76.80;;;;;;4980141;28;20049;-67
2023/10/15 13:11:58;;;;;;;3.17;0.40;;;11.30;79.00;;;;;;5001932;28;20101;-68
2023/10/15 13:14:24;;;;;;;2.75;0.70;;;11.80;77.50;;;;;;4999079;28;20041;-68
2023/10/15 13:16:50;;;;;;;1.63;0.40;;;11.80;77.50;;;;;;4998577;28;20027;-68
2023/10/15 13:19:16;;;;;;;1.30;0.40;;;11.60;76.80;;;;;;4992928;28;20027;-67
2023/10/15 13:21:42;;;;;;;0.90;0.25;;;11.80;76.20;;;;;;5006877;28;20030;-69
2023/10/15 13:24:08;;;;;;;2.35;0.65;;;12.00;77.10;;;;;;5006527;28;20038;-68
2023/10/15 13:26:33;;;;;;;2.53;0.60;;;12.00;76.90;;;;;;5008150;28;20116;-67